createdAt,value
2019-03-27T00:07:05.059Z,6.2
2019-03-27T00:17:56.989Z,6.2
2019-03-27T00:28:54.333Z,6.2
2019-03-27T00:39:47.472Z,6.1
2019-03-27T00:50:54.091Z,6.1
2019-03-27T01:01:38.146Z,6.1
2019-03-27T01:12:03.682Z,6.1
2019-03-27T01:23:00.033Z,5.9
2019-03-27T01:33:51.185Z,5.8
2019-03-27T01:44:37.124Z,5.7
2019-03-27T01:55:27.348Z,5.7
2019-03-27T02:05:57.372Z,5.6
2019-03-27T02:16:26.396Z,5.5
2019-03-27T02:26:51.986Z,5.3
2019-03-27T02:37:11.012Z,5.1
2019-03-27T02:47:37.158Z,5.0
2019-03-27T02:58:01.254Z,5.0
2019-03-27T03:14:30.737Z,5.1
2019-03-27T03:25:02.197Z,5.1
2019-03-27T03:36:07.304Z,5.0
2019-03-27T03:47:18.799Z,5.0
2019-03-27T03:57:45.236Z,5.0
2019-03-27T04:07:59.703Z,5.0
2019-03-27T04:18:44.475Z,4.9
2019-03-27T04:29:11.011Z,4.8
2019-03-27T04:39:36.182Z,4.7
2019-03-27T04:50:03.445Z,4.7
2019-03-27T05:01:12.348Z,4.5
2019-03-27T05:11:26.455Z,4.5
2019-03-27T05:21:47.195Z,4.5
2019-03-27T05:32:16.269Z,4.5
2019-03-27T05:42:35.818Z,4.5
2019-03-27T05:52:59.025Z,4.5
2019-03-27T06:03:22.085Z,4.5
2019-03-27T06:13:35.738Z,4.6
2019-03-27T06:23:49.717Z,4.7
2019-03-27T06:34:10.449Z,4.8
2019-03-27T06:44:40.813Z,5.0
2019-03-27T06:55:03.344Z,5.2
2019-03-27T07:05:22.296Z,5.4
2019-03-27T07:15:45.214Z,5.6
2019-03-27T07:26:15.354Z,5.9
2019-03-27T07:37:09.492Z,6.4
2019-03-27T07:48:01.850Z,6.8
2019-03-27T07:58:52.149Z,7.1
2019-03-27T08:09:14.751Z,7.1
2019-03-27T08:20:13.354Z,8.5
2019-03-27T08:30:59.165Z,9.5
2019-03-27T08:41:51.308Z,10.0
2019-03-27T08:52:47.600Z,10.4
2019-03-27T09:03:44.778Z,10.8
2019-03-27T09:14:36.823Z,11.4
2019-03-27T09:25:04.518Z,11.4
2019-03-27T09:35:55.785Z,13.4
2019-03-27T09:46:57.443Z,15.0
2019-03-27T09:57:22.317Z,15.0
2019-03-27T10:08:09.265Z,18.7
2019-03-27T10:18:55.823Z,19.6
2019-03-27T10:29:46.338Z,20.5
2019-03-27T10:40:05.005Z,20.6
2019-03-27T10:50:55.092Z,21.9
2019-03-27T11:01:43.233Z,22.3
2019-03-27T11:13:00.612Z,23.2
2019-03-27T11:23:55.865Z,24.0
2019-03-27T11:34:14.924Z,24.0
2019-03-27T11:44:36.019Z,23.9
2019-03-27T11:54:54.988Z,23.5
2019-03-27T12:05:15.085Z,23.1
2019-03-27T12:15:39.628Z,22.6
2019-03-27T12:26:31.178Z,21.6
2019-03-27T12:36:47.045Z,21.6
2019-03-27T12:47:44.271Z,21.6
2019-03-27T12:58:38.102Z,21.7
2019-03-27T13:08:56.663Z,21.7
2019-03-27T13:19:54.328Z,21.4
2019-03-27T13:30:44.597Z,21.0
2019-03-27T13:41:00.267Z,21.0
2019-03-27T13:51:48.060Z,20.2
2019-03-27T14:02:38.718Z,19.8
2019-03-27T14:14:11.172Z,19.3
2019-03-27T14:24:42.164Z,19.3
2019-03-27T14:34:58.867Z,18.9
2019-03-27T14:45:15.139Z,18.5
2019-03-27T14:56:36.108Z,17.8
2019-03-27T15:07:03.488Z,17.8
2019-03-27T15:17:53.909Z,17.3
2019-03-27T15:28:38.905Z,17.0
2019-03-27T15:38:53.372Z,17.0
2019-03-27T15:49:44.485Z,16.6
2019-03-27T15:59:58.826Z,16.6
2019-03-27T16:10:46.688Z,16.2
2019-03-27T16:21:37.318Z,16.1
2019-03-27T16:32:25.190Z,16.0
2019-03-27T16:43:15.191Z,15.9
2019-03-27T16:53:31.097Z,15.8
2019-03-27T17:03:49.784Z,15.7
2019-03-27T17:16:39.537Z,15.1
2019-03-27T17:26:54.226Z,15.1
2019-03-27T17:37:43.523Z,14.7
2019-03-27T17:48:02.982Z,14.7
2019-03-27T17:59:24.240Z,14.0
2019-03-27T18:09:49.119Z,14.0
2019-03-27T18:20:51.108Z,13.4
2019-03-27T18:31:02.984Z,13.4
2019-03-27T18:43:02.883Z,12.8
2019-03-27T18:53:58.855Z,12.5
2019-03-27T19:21:14.040Z,12.0
2019-03-27T19:32:15.035Z,11.9
2019-03-27T19:43:05.894Z,11.7
2019-03-27T19:54:37.255Z,11.5
2019-03-27T20:08:00.734Z,11.4
2019-03-27T20:50:15.931Z,11.1
2019-03-27T21:00:29.574Z,10.9
2019-03-27T21:11:16.260Z,10.7
2019-03-27T21:21:28.058Z,10.6
2019-03-27T21:31:42.097Z,10.6
2019-03-27T21:42:29.857Z,10.4
2019-03-27T21:53:17.149Z,10.3
2019-03-27T22:03:31.771Z,10.3
2019-03-27T22:13:45.716Z,10.3
2019-03-27T22:23:59.814Z,10.1
2019-03-27T22:34:13.991Z,10.1
2019-03-27T22:44:28.335Z,10.0
2019-03-27T22:54:42.440Z,9.9
2019-03-27T23:05:30.384Z,9.8
2019-03-27T23:15:43.675Z,9.8
2019-03-27T23:26:02.402Z,9.7
2019-03-27T23:36:42.622Z,9.6
2019-03-27T23:46:55.879Z,9.6
2019-03-27T23:57:10.101Z,9.6
